sensor_id;sensor_type;location;lat;lon;timestamp;pressure;altitude;pressure_sealevel;temperature;humidity
9969;BME280;5025;48.890;9.278;2023-03-15T00:02:03;98418.84;;;2.98;84.18
9969;BME280;5025;48.890;9.278;2023-03-15T00:04:28;98419.63;;;3.14;83.68
9969;BME280;5025;48.890;9.278;2023-03-15T00:06:57;98428.44;;;3.14;83.45
9969;BME280;5025;48.890;9.278;2023-03-15T00:09:22;98428.75;;;3.04;82.93
9969;BME280;5025;48.890;9.278;2023-03-15T00:11:48;98438.16;;;3.00;83.50
9969;BME280;5025;48.890;9.278;2023-03-15T00:14:14;98452.41;;;3.08;83.25
9969;BME280;5025;48.890;9.278;2023-03-15T00:16:39;98455.38;;;2.98;83.59
9969;BME280;5025;48.890;9.278;2023-03-15T00:19:06;98456.94;;;2.92;83.88
9969;BME280;5025;48.890;9.278;2023-03-15T00:21:32;98469.34;;;3.00;84.10
9969;BME280;5025;48.890;9.278;2023-03-15T00:23:58;98469.84;;;2.89;84.26
9969;BME280;5025;48.890;9.278;2023-03-15T00:26:23;98482.56;;;3.08;84.40
9969;BME280;5025;48.890;9.278;2023-03-15T00:28:48;98488.50;;;2.89;83.96
9969;BME280;5025;48.890;9.278;2023-03-15T00:31:19;98493.00;;;2.88;84.16
9969;BME280;5025;48.890;9.278;2023-03-15T00:33:46;98492.47;;;2.78;84.88
9969;BME280;5025;48.890;9.278;2023-03-15T00:36:12;98497.25;;;2.67;85.63
9969;BME280;5025;48.890;9.278;2023-03-15T00:38:40;98502.31;;;2.62;85.92
9969;BME280;5025;48.890;9.278;2023-03-15T00:41:13;98502.59;;;2.38;86.92
9969;BME280;5025;48.890;9.278;2023-03-15T00:43:39;98508.66;;;2.31;87.76
9969;BME280;5025;48.890;9.278;2023-03-15T00:46:05;98510.56;;;2.23;88.41
9969;BME280;5025;48.890;9.278;2023-03-15T00:48:31;98510.84;;;2.13;88.87
9969;BME280;5025;48.890;9.278;2023-03-15T00:51:11;98517.75;;;2.52;88.85
9969;BME280;5025;48.890;9.278;2023-03-15T00:53:39;98510.94;;;2.64;88.07
9969;BME280;5025;48.890;9.278;2023-03-15T00:56:15;98511.88;;;2.72;87.65
9969;BME280;5025;48.890;9.278;2023-03-15T00:58:41;98514.81;;;2.77;87.74
9969;BME280;5025;48.890;9.278;2023-03-15T01:01:08;98517.53;;;2.98;87.33
9969;BME280;5025;48.890;9.278;2023-03-15T01:03:36;98521.94;;;3.06;86.61
9969;BME280;5025;48.890;9.278;2023-03-15T01:06:10;98530.25;;;2.81;86.50
9969;BME280;5025;48.890;9.278;2023-03-15T01:08:35;98536.97;;;2.77;86.51
9969;BME280;5025;48.890;9.278;2023-03-15T01:11:06;98541.09;;;2.65;87.10
9969;BME280;5025;48.890;9.278;2023-03-15T01:13:32;98545.06;;;2.54;87.07
9969;BME280;5025;48.890;9.278;2023-03-15T01:15:57;98544.59;;;2.50;87.52
9969;BME280;5025;48.890;9.278;2023-03-15T01:18:23;98557.56;;;2.68;87.88
9969;BME280;5025;48.890;9.278;2023-03-15T01:20:49;98553.63;;;2.79;87.24
9969;BME280;5025;48.890;9.278;2023-03-15T01:23:14;98553.25;;;2.67;87.45
9969;BME280;5025;48.890;9.278;2023-03-15T01:25:40;98556.09;;;2.81;87.59
9969;BME280;5025;48.890;9.278;2023-03-15T01:28:05;98555.63;;;2.92;86.99
9969;BME280;5025;48.890;9.278;2023-03-15T01:30:31;98551.28;;;2.91;86.59
9969;BME280;5025;48.890;9.278;2023-03-15T01:32:56;98560.84;;;3.00;86.71
9969;BME280;5025;48.890;9.278;2023-03-15T01:35:22;98562.50;;;3.01;86.35
9969;BME280;5025;48.890;9.278;2023-03-15T01:37:51;98562.44;;;2.95;86.04
9969;BME280;5025;48.890;9.278;2023-03-15T01:40:16;98561.34;;;3.04;86.13
9969;BME280;5025;48.890;9.278;2023-03-15T01:42:52;98561.78;;;3.08;85.80
9969;BME280;5025;48.890;9.278;2023-03-15T01:48:23;98576.03;;;3.00;85.27
9969;BME280;5025;48.890;9.278;2023-03-15T01:50:50;98574.09;;;2.79;84.91
9969;BME280;5025;48.890;9.278;2023-03-15T01:53:16;98576.03;;;2.85;84.97
9969;BME280;5025;48.890;9.278;2023-03-15T01:55:42;98585.34;;;2.89;84.79
9969;BME280;5025;48.890;9.278;2023-03-15T01:58:08;98590.66;;;2.74;84.60
9969;BME280;5025;48.890;9.278;2023-03-15T02:00:34;98597.44;;;2.47;84.41
9969;BME280;5025;48.890;9.278;2023-03-15T02:03:05;98599.19;;;2.55;85.09
9969;BME280;5025;48.890;9.278;2023-03-15T02:05:35;98602.50;;;2.57;84.82
9969;BME280;5025;48.890;9.278;2023-03-15T02:08:04;98604.25;;;2.49;84.79
9969;BME280;5025;48.890;9.278;2023-03-15T02:10:36;98606.53;;;2.38;84.93
9969;BME280;5025;48.890;9.278;2023-03-15T02:13:04;98610.69;;;2.40;85.07
9969;BME280;5025;48.890;9.278;2023-03-15T02:15:29;98599.19;;;2.55;84.92
9969;BME280;5025;48.890;9.278;2023-03-15T02:17:55;98609.41;;;2.66;84.46
9969;BME280;5025;48.890;9.278;2023-03-15T02:23:10;98604.38;;;2.86;83.88
9969;BME280;5025;48.890;9.278;2023-03-15T02:28:11;98604.75;;;2.98;83.28
9969;BME280;5025;48.890;9.278;2023-03-15T02:30:37;98605.19;;;3.01;83.16
9969;BME280;5025;48.890;9.278;2023-03-15T02:33:07;98611.34;;;3.02;82.95
9969;BME280;5025;48.890;9.278;2023-03-15T02:35:35;98614.19;;;3.00;82.93
9969;BME280;5025;48.890;9.278;2023-03-15T02:38:00;98617.41;;;2.96;82.90
9969;BME280;5025;48.890;9.278;2023-03-15T02:40:29;98623.50;;;2.90;82.83
9969;BME280;5025;48.890;9.278;2023-03-15T02:42:58;98621.50;;;2.92;82.85
9969;BME280;5025;48.890;9.278;2023-03-15T02:45:26;98620.63;;;2.91;82.73
9969;BME280;5025;48.890;9.278;2023-03-15T02:47:51;98627.00;;;2.90;82.80
9969;BME280;5025;48.890;9.278;2023-03-15T02:50:17;98634.53;;;2.86;82.59
9969;BME280;5025;48.890;9.278;2023-03-15T02:52:42;98641.44;;;2.81;82.61
9969;BME280;5025;48.890;9.278;2023-03-15T02:55:08;98650.06;;;2.83;82.79
9969;BME280;5025;48.890;9.278;2023-03-15T02:57:35;98652.91;;;2.81;82.29
9969;BME280;5025;48.890;9.278;2023-03-15T03:00:00;98658.25;;;2.81;82.49
9969;BME280;5025;48.890;9.278;2023-03-15T03:02:39;98669.19;;;2.72;82.34
9969;BME280;5025;48.890;9.278;2023-03-15T03:05:08;98668.53;;;2.69;82.57
9969;BME280;5025;48.890;9.278;2023-03-15T03:07:34;98669.56;;;2.68;82.71
9969;BME280;5025;48.890;9.278;2023-03-15T03:09:59;98682.53;;;2.72;82.50
9969;BME280;5025;48.890;9.278;2023-03-15T03:12:24;98678.66;;;2.74;82.37
9969;BME280;5025;48.890;9.278;2023-03-15T03:14:50;98682.81;;;2.77;82.17
9969;BME280;5025;48.890;9.278;2023-03-15T03:17:15;98702.09;;;2.79;82.08
9969;BME280;5025;48.890;9.278;2023-03-15T03:19:40;98699.44;;;2.79;81.78
9969;BME280;5025;48.890;9.278;2023-03-15T03:22:06;98707.44;;;2.79;81.82
9969;BME280;5025;48.890;9.278;2023-03-15T03:24:31;98715.78;;;2.76;81.95
9969;BME280;5025;48.890;9.278;2023-03-15T03:26:57;98715.78;;;2.76;81.55
9969;BME280;5025;48.890;9.278;2023-03-15T03:29:23;98722.16;;;2.75;81.38
9969;BME280;5025;48.890;9.278;2023-03-15T03:31:49;98722.53;;;2.72;81.36
9969;BME280;5025;48.890;9.278;2023-03-15T03:34:14;98723.50;;;2.71;81.08
9969;BME280;5025;48.890;9.278;2023-03-15T03:36:43;98725.19;;;2.72;81.18
9969;BME280;5025;48.890;9.278;2023-03-15T03:39:09;98730.03;;;2.68;81.29
9969;BME280;5025;48.890;9.278;2023-03-15T03:41:34;98730.03;;;2.68;80.92
9969;BME280;5025;48.890;9.278;2023-03-15T03:44:00;98740.88;;;2.66;80.75
9969;BME280;5025;48.890;9.278;2023-03-15T03:46:25;98744.56;;;2.65;80.75
9969;BME280;5025;48.890;9.278;2023-03-15T03:48:52;98743.25;;;2.61;80.66
9969;BME280;5025;48.890;9.278;2023-03-15T03:51:17;98755.94;;;2.59;80.71
9969;BME280;5025;48.890;9.278;2023-03-15T03:53:43;98751.31;;;2.53;80.23
9969;BME280;5025;48.890;9.278;2023-03-15T03:56:08;98758.69;;;2.51;80.37
9969;BME280;5025;48.890;9.278;2023-03-15T03:58:33;98759.03;;;2.48;80.18
9969;BME280;5025;48.890;9.278;2023-03-15T04:00:59;98771.31;;;2.49;80.30
9969;BME280;5025;48.890;9.278;2023-03-15T04:03:24;98768.84;;;2.47;80.28
9969;BME280;5025;48.890;9.278;2023-03-15T04:05:54;98776.31;;;2.52;80.28
9969;BME280;5025;48.890;9.278;2023-03-15T04:08:20;98776.31;;;2.52;79.91
9969;BME280;5025;48.890;9.278;2023-03-15T04:10:51;98775.84;;;2.48;79.98
9969;BME280;5025;48.890;9.278;2023-03-15T04:13:17;98778.69;;;2.47;79.93
9969;BME280;5025;48.890;9.278;2023-03-15T04:15:42;98781.06;;;2.42;80.10
9969;BME280;5025;48.890;9.278;2023-03-15T04:18:08;98782.94;;;2.33;80.04
9969;BME280;5025;48.890;9.278;2023-03-15T04:20:34;98790.63;;;2.28;80.10
9969;BME280;5025;48.890;9.278;2023-03-15T04:22:59;98793.94;;;2.30;80.25
9969;BME280;5025;48.890;9.278;2023-03-15T04:25:26;98794.75;;;2.30;80.03
9969;BME280;5025;48.890;9.278;2023-03-15T04:27:52;98800.09;;;2.30;79.83
9969;BME280;5025;48.890;9.278;2023-03-15T04:30:24;98806.28;;;2.31;79.59
9969;BME280;5025;48.890;9.278;2023-03-15T04:32:51;98802.56;;;2.32;79.72
9969;BME280;5025;48.890;9.278;2023-03-15T04:35:25;98799.56;;;2.35;79.30
9969;BME280;5025;48.890;9.278;2023-03-15T04:37:51;98810.03;;;2.37;79.24
9969;BME280;5025;48.890;9.278;2023-03-15T04:40:16;98811.53;;;2.39;79.12
9969;BME280;5025;48.890;9.278;2023-03-15T04:42:41;98808.88;;;2.39;79.12
9969;BME280;5025;48.890;9.278;2023-03-15T04:45:07;98815.03;;;2.40;78.94
9969;BME280;5025;48.890;9.278;2023-03-15T04:47:32;98814.84;;;2.41;78.94
9969;BME280;5025;48.890;9.278;2023-03-15T04:49:58;98808.88;;;2.39;78.78
9969;BME280;5025;48.890;9.278;2023-03-15T04:52:23;98816.69;;;2.41;78.77
9969;BME280;5025;48.890;9.278;2023-03-15T04:54:48;98815.34;;;2.45;78.65
9969;BME280;5025;48.890;9.278;2023-03-15T04:57:14;98813.84;;;2.42;78.57
9969;BME280;5025;48.890;9.278;2023-03-15T04:59:39;98810.38;;;2.42;78.66
9969;BME280;5025;48.890;9.278;2023-03-15T05:02:04;98819.19;;;2.42;78.62
9969;BME280;5025;48.890;9.278;2023-03-15T05:04:29;98815.53;;;2.43;78.95
9969;BME280;5025;48.890;9.278;2023-03-15T05:06:55;98812.88;;;2.43;78.37
9969;BME280;5025;48.890;9.278;2023-03-15T05:09:20;98808.53;;;2.42;78.60
9969;BME280;5025;48.890;9.278;2023-03-15T05:11:46;98808.34;;;2.44;78.31
9969;BME280;5025;48.890;9.278;2023-03-15T05:14:11;98812.69;;;2.45;78.18
9969;BME280;5025;48.890;9.278;2023-03-15T05:16:37;98812.00;;;2.43;78.30
9969;BME280;5025;48.890;9.278;2023-03-15T05:19:02;98807.72;;;2.42;78.00
9969;BME280;5025;48.890;9.278;2023-03-15T05:21:28;98811.38;;;2.41;77.83
9969;BME280;5025;48.890;9.278;2023-03-15T05:23:53;98812.53;;;2.38;77.58
9969;BME280;5025;48.890;9.278;2023-03-15T05:26:18;98810.41;;;2.33;77.61
9969;BME280;5025;48.890;9.278;2023-03-15T05:28:44;98812.78;;;2.28;77.62
9969;BME280;5025;48.890;9.278;2023-03-15T05:31:09;98817.28;;;2.28;77.51
9969;BME280;5025;48.890;9.278;2023-03-15T05:33:37;98816.06;;;2.30;77.71
9969;BME280;5025;48.890;9.278;2023-03-15T05:36:02;98811.59;;;2.31;77.57
9969;BME280;5025;48.890;9.278;2023-03-15T05:38:29;98814.09;;;2.32;77.48
9969;BME280;5025;48.890;9.278;2023-03-15T05:40:55;98817.41;;;2.35;77.38
9969;BME280;5025;48.890;9.278;2023-03-15T05:43:20;98819.06;;;2.36;77.44
9969;BME280;5025;48.890;9.278;2023-03-15T05:45:46;98821.38;;;2.39;77.47
9969;BME280;5025;48.890;9.278;2023-03-15T05:48:13;98819.72;;;2.38;76.99
9969;BME280;5025;48.890;9.278;2023-03-15T05:50:38;98834.34;;;2.42;76.89
9969;BME280;5025;48.890;9.278;2023-03-15T05:53:03;98836.34;;;2.40;76.69
9969;BME280;5025;48.890;9.278;2023-03-15T05:55:29;98825.03;;;2.38;76.92
9969;BME280;5025;48.890;9.278;2023-03-15T05:57:54;98832.69;;;2.41;76.47
9969;BME280;5025;48.890;9.278;2023-03-15T06:00:19;98827.53;;;2.39;76.35
9969;BME280;5025;48.890;9.278;2023-03-15T06:02:45;98842.53;;;2.40;76.21
9969;BME280;5025;48.890;9.278;2023-03-15T06:05:11;98835.53;;;2.39;76.20
9969;BME280;5025;48.890;9.278;2023-03-15T06:07:36;98843.34;;;2.41;76.01
9969;BME280;5025;48.890;9.278;2023-03-15T06:10:03;98844.16;;;2.41;75.94
9969;BME280;5025;48.890;9.278;2023-03-15T06:12:28;98844.00;;;2.43;76.03
9969;BME280;5025;48.890;9.278;2023-03-15T06:14:53;98851.00;;;2.44;75.93
9969;BME280;5025;48.890;9.278;2023-03-15T06:17:19;98852.00;;;2.43;75.94
9969;BME280;5025;48.890;9.278;2023-03-15T06:19:44;98855.50;;;2.43;75.88
9969;BME280;5025;48.890;9.278;2023-03-15T06:22:10;98858.34;;;2.42;75.54
9969;BME280;5025;48.890;9.278;2023-03-15T06:24:37;98858.81;;;2.45;75.67
9969;BME280;5025;48.890;9.278;2023-03-15T06:27:02;98863.50;;;2.43;75.54
9969;BME280;5025;48.890;9.278;2023-03-15T06:29:28;98862.47;;;2.44;75.50
9969;BME280;5025;48.890;9.278;2023-03-15T06:31:53;98860.84;;;2.43;75.30
9969;BME280;5025;48.890;9.278;2023-03-15T06:34:19;98862.66;;;2.43;75.17
9969;BME280;5025;48.890;9.278;2023-03-15T06:36:45;98858.53;;;2.40;75.14
9969;BME280;5025;48.890;9.278;2023-03-15T06:39:11;98865.66;;;2.40;75.15
9969;BME280;5025;48.890;9.278;2023-03-15T06:41:38;98867.69;;;2.38;75.04
9969;BME280;5025;48.890;9.278;2023-03-15T06:44:04;98874.84;;;2.37;74.78
9969;BME280;5025;48.890;9.278;2023-03-15T06:46:29;98872.03;;;2.39;74.98
9969;BME280;5025;48.890;9.278;2023-03-15T06:48:55;98870.00;;;2.41;74.97
9969;BME280;5025;48.890;9.278;2023-03-15T06:51:20;98872.50;;;2.42;74.61
9969;BME280;5025;48.890;9.278;2023-03-15T06:53:46;98876.81;;;2.43;74.64
9969;BME280;5025;48.890;9.278;2023-03-15T06:56:11;98876.47;;;2.46;74.36
9969;BME280;5025;48.890;9.278;2023-03-15T06:58:36;98876.66;;;2.45;74.32
9969;BME280;5025;48.890;9.278;2023-03-15T07:01:02;98866.00;;;2.45;74.19
9969;BME280;5025;48.890;9.278;2023-03-15T07:03:27;98874.63;;;2.47;74.16
9969;BME280;5025;48.890;9.278;2023-03-15T07:05:52;98881.94;;;2.53;74.05
9969;BME280;5025;48.890;9.278;2023-03-15T07:08:23;98883.78;;;2.53;73.95
9969;BME280;5025;48.890;9.278;2023-03-15T07:10:49;98893.41;;;2.54;73.71
9969;BME280;5025;48.890;9.278;2023-03-15T07:13:17;98876.59;;;2.53;73.96
9969;BME280;5025;48.890;9.278;2023-03-15T07:15:49;98877.56;;;2.60;73.85
9969;BME280;5025;48.890;9.278;2023-03-15T07:18:15;98873.72;;;2.63;73.31
9969;BME280;5025;48.890;9.278;2023-03-15T07:20:40;98879.50;;;2.66;73.20
9969;BME280;5025;48.890;9.278;2023-03-15T07:23:05;98877.53;;;2.68;72.86
9969;BME280;5025;48.890;9.278;2023-03-15T07:25:31;98883.50;;;2.71;72.90
9969;BME280;5025;48.890;9.278;2023-03-15T07:27:56;98889.31;;;2.74;72.51
9969;BME280;5025;48.890;9.278;2023-03-15T07:30:21;98880.94;;;2.77;72.35
9969;BME280;5025;48.890;9.278;2023-03-15T07:32:47;98890.50;;;2.72;72.22
9969;BME280;5025;48.890;9.278;2023-03-15T07:35:12;98888.41;;;2.82;72.29
9969;BME280;5025;48.890;9.278;2023-03-15T07:37:38;98893.41;;;2.85;72.22
9969;BME280;5025;48.890;9.278;2023-03-15T07:40:04;98894.59;;;2.82;71.94
9969;BME280;5025;48.890;9.278;2023-03-15T07:42:35;98905.63;;;2.79;71.48
9969;BME280;5025;48.890;9.278;2023-03-15T07:45:01;98901.72;;;2.90;71.42
9969;BME280;5025;48.890;9.278;2023-03-15T07:47:26;98900.34;;;2.94;71.07
9969;BME280;5025;48.890;9.278;2023-03-15T07:49:52;98910.13;;;3.02;70.83
9969;BME280;5025;48.890;9.278;2023-03-15T07:52:19;98904.44;;;3.05;70.44
9969;BME280;5025;48.890;9.278;2023-03-15T07:54:45;98907.91;;;3.14;70.36
9969;BME280;5025;48.890;9.278;2023-03-15T07:57:11;98905.34;;;3.20;69.89
9969;BME280;5025;48.890;9.278;2023-03-15T07:59:37;98904.81;;;3.25;69.79
9969;BME280;5025;48.890;9.278;2023-03-15T08:02:02;98903.28;;;3.31;69.39
9969;BME280;5025;48.890;9.278;2023-03-15T08:04:27;98905.94;;;3.31;68.72
9969;BME280;5025;48.890;9.278;2023-03-15T08:06:52;98902.72;;;3.35;68.45
9969;BME280;5025;48.890;9.278;2023-03-15T08:09:18;98902.66;;;3.44;68.04
9969;BME280;5025;48.890;9.278;2023-03-15T08:11:43;98900.66;;;3.46;67.19
9969;BME280;5025;48.890;9.278;2023-03-15T08:14:08;98904.50;;;3.43;66.86
9969;BME280;5025;48.890;9.278;2023-03-15T08:16:33;98911.34;;;3.46;66.45
9969;BME280;5025;48.890;9.278;2023-03-15T08:18:59;98917.50;;;3.46;65.88
9969;BME280;5025;48.890;9.278;2023-03-15T08:21:24;98911.97;;;3.48;64.91
9969;BME280;5025;48.890;9.278;2023-03-15T08:23:49;98919.91;;;3.56;64.84
9969;BME280;5025;48.890;9.278;2023-03-15T08:26:15;98916.16;;;3.65;64.38
9969;BME280;5025;48.890;9.278;2023-03-15T08:28:40;98917.66;;;3.68;64.11
9969;BME280;5025;48.890;9.278;2023-03-15T08:31:07;98920.78;;;3.71;64.10
9969;BME280;5025;48.890;9.278;2023-03-15T08:33:33;98916.75;;;3.75;63.68
9969;BME280;5025;48.890;9.278;2023-03-15T08:35:58;98923.09;;;3.74;63.92
9969;BME280;5025;48.890;9.278;2023-03-15T08:38:23;98916.47;;;3.85;63.71
9969;BME280;5025;48.890;9.278;2023-03-15T08:40:55;98920.25;;;3.91;63.64
9969;BME280;5025;48.890;9.278;2023-03-15T08:43:20;98921.94;;;3.92;63.66
9969;BME280;5025;48.890;9.278;2023-03-15T08:45:46;98937.19;;;3.98;63.25
9969;BME280;5025;48.890;9.278;2023-03-15T08:48:12;98925.16;;;4.02;63.00
9969;BME280;5025;48.890;9.278;2023-03-15T08:50:38;98920.94;;;4.08;63.06
9969;BME280;5025;48.890;9.278;2023-03-15T08:53:03;98933.63;;;4.21;62.81
9969;BME280;5025;48.890;9.278;2023-03-15T08:55:29;98931.69;;;4.15;59.34
9969;BME280;5025;48.890;9.278;2023-03-15T08:57:54;98925.16;;;4.32;59.76
9969;BME280;5025;48.890;9.278;2023-03-15T09:00:20;98928.38;;;4.42;59.48
9969;BME280;5025;48.890;9.278;2023-03-15T09:02:47;98919.06;;;4.53;59.15
9969;BME280;5025;48.890;9.278;2023-03-15T09:05:13;98930.88;;;4.59;58.79
9969;BME280;5025;48.890;9.278;2023-03-15T09:07:40;98934.06;;;4.69;58.83
9969;BME280;5025;48.890;9.278;2023-03-15T09:10:10;98941.91;;;4.71;57.90
9969;BME280;5025;48.890;9.278;2023-03-15T09:12:39;98946.44;;;4.70;56.84
9969;BME280;5025;48.890;9.278;2023-03-15T09:15:05;98937.03;;;4.74;55.79
9969;BME280;5025;48.890;9.278;2023-03-15T09:17:30;98943.44;;;4.80;54.64
9969;BME280;5025;48.890;9.278;2023-03-15T09:19:56;98940.91;;;4.72;54.21
9969;BME280;5025;48.890;9.278;2023-03-15T09:22:21;98950.41;;;4.74;54.27
9969;BME280;5025;48.890;9.278;2023-03-15T09:24:46;98953.53;;;4.63;52.33
9969;BME280;5025;48.890;9.278;2023-03-15T09:27:12;98946.53;;;4.47;53.00
9969;BME280;5025;48.890;9.278;2023-03-15T09:29:37;98967.75;;;4.48;53.70
9969;BME280;5025;48.890;9.278;2023-03-15T09:32:02;98953.34;;;4.64;53.77
9969;BME280;5025;48.890;9.278;2023-03-15T09:34:28;98956.75;;;4.73;53.83
9969;BME280;5025;48.890;9.278;2023-03-15T09:36:54;98959.06;;;4.76;53.87
9969;BME280;5025;48.890;9.278;2023-03-15T09:39:20;98961.38;;;4.79;54.16
9969;BME280;5025;48.890;9.278;2023-03-15T09:41:58;98966.16;;;4.69;54.13
9969;BME280;5025;48.890;9.278;2023-03-15T09:44:37;98949.28;;;4.69;54.36
9969;BME280;5025;48.890;9.278;2023-03-15T09:47:17;98958.63;;;4.73;53.89
9969;BME280;5025;48.890;9.278;2023-03-15T09:49:49;98956.66;;;4.81;53.53
9969;BME280;5025;48.890;9.278;2023-03-15T09:54:57;98961.81;;;4.83;52.60
9969;BME280;5025;48.890;9.278;2023-03-15T10:00:04;98970.97;;;4.74;52.47
9969;BME280;5025;48.890;9.278;2023-03-15T10:02:41;98970.78;;;4.75;50.96
9969;BME280;5025;48.890;9.278;2023-03-15T10:05:11;98958.06;;;4.62;50.62
9969;BME280;5025;48.890;9.278;2023-03-15T10:07:40;98958.50;;;4.66;51.63
9969;BME280;5025;48.890;9.278;2023-03-15T10:10:14;98959.00;;;4.70;51.54
9969;BME280;5025;48.890;9.278;2023-03-15T10:12:45;98956.31;;;4.70;51.26
9969;BME280;5025;48.890;9.278;2023-03-15T10:16:07;98954.53;;;4.77;51.47
9969;BME280;5025;48.890;9.278;2023-03-15T10:18:19;98952.88;;;4.76;51.29
9969;BME280;5025;48.890;9.278;2023-03-15T10:20:59;98961.25;;;4.88;51.48
9969;BME280;5025;48.890;9.278;2023-03-15T10:23:37;98961.06;;;4.89;51.69
9969;BME280;5025;48.890;9.278;2023-03-15T10:26:05;98957.44;;;4.97;51.66
9969;BME280;5025;48.890;9.278;2023-03-15T10:28:32;98969.13;;;5.11;51.73
9969;BME280;5025;48.890;9.278;2023-03-15T10:30:59;98961.56;;;5.14;51.06
9969;BME280;5025;48.890;9.278;2023-03-15T10:33:36;98961.06;;;5.26;51.31
9969;BME280;5025;48.890;9.278;2023-03-15T10:36:13;98960.50;;;5.30;51.17
9969;BME280;5025;48.890;9.278;2023-03-15T10:38:38;98956.22;;;5.36;51.12
9969;BME280;5025;48.890;9.278;2023-03-15T10:41:05;98952.56;;;5.44;50.97
9969;BME280;5025;48.890;9.278;2023-03-15T10:43:34;98945.25;;;5.52;50.91
9969;BME280;5025;48.890;9.278;2023-03-15T10:46:04;98954.44;;;5.65;50.76
9969;BME280;5025;48.890;9.278;2023-03-15T10:48:56;98951.22;;;5.76;50.73
9969;BME280;5025;48.890;9.278;2023-03-15T10:56:44;98948.66;;;5.89;50.42
9969;BME280;5025;48.890;9.278;2023-03-15T10:59:22;98949.66;;;5.88;49.90
9969;BME280;5025;48.890;9.278;2023-03-15T11:01:52;98945.75;;;5.84;49.73
9969;BME280;5025;48.890;9.278;2023-03-15T11:04:23;98952.81;;;5.92;50.05
9969;BME280;5025;48.890;9.278;2023-03-15T11:09:23;98945.81;;;5.69;49.56
9969;BME280;5025;48.890;9.278;2023-03-15T11:11:58;98948.31;;;5.71;49.71
9969;BME280;5025;48.890;9.278;2023-03-15T11:14:26;98946.19;;;5.66;49.73
9969;BME280;5025;48.890;9.278;2023-03-15T11:16:58;98952.00;;;5.70;49.87
9969;BME280;5025;48.890;9.278;2023-03-15T11:19:29;98941.66;;;5.67;49.88
9969;BME280;5025;48.890;9.278;2023-03-15T11:21:57;98946.72;;;5.55;51.06
9969;BME280;5025;48.890;9.278;2023-03-15T11:24:28;98954.00;;;5.39;52.15
9969;BME280;5025;48.890;9.278;2023-03-15T11:26:55;98947.75;;;5.32;51.57
9969;BME280;5025;48.890;9.278;2023-03-15T11:29:24;98954.09;;;5.31;52.12
9969;BME280;5025;48.890;9.278;2023-03-15T11:31:51;98947.94;;;5.31;50.09
9969;BME280;5025;48.890;9.278;2023-03-15T11:34:24;98954.47;;;5.28;48.70
9969;BME280;5025;48.890;9.278;2023-03-15T11:36:55;98957.75;;;5.24;48.38
9969;BME280;5025;48.890;9.278;2023-03-15T11:39:46;98949.25;;;5.20;47.91
9969;BME280;5025;48.890;9.278;2023-03-15T11:42:21;98940.03;;;5.23;48.58
9969;BME280;5025;48.890;9.278;2023-03-15T11:44:50;98948.25;;;5.21;48.23
9969;BME280;5025;48.890;9.278;2023-03-15T11:49:56;98954.50;;;5.50;48.91
9969;BME280;5025;48.890;9.278;2023-03-15T11:52:23;98946.25;;;5.30;50.54
9969;BME280;5025;48.890;9.278;2023-03-15T11:54:51;98940.91;;;5.30;51.25
9969;BME280;5025;48.890;9.278;2023-03-15T11:57:38;98954.47;;;5.28;51.07
9969;BME280;5025;48.890;9.278;2023-03-15T12:02:59;98954.44;;;5.21;52.23
9969;BME280;5025;48.890;9.278;2023-03-15T12:05:50;98955.13;;;5.09;52.90
9969;BME280;5025;48.890;9.278;2023-03-15T12:10:45;98959.41;;;5.25;53.93
9969;BME280;5025;48.890;9.278;2023-03-15T12:13:24;98961.81;;;5.19;54.48
9969;BME280;5025;48.890;9.278;2023-03-15T12:15:50;98962.19;;;5.16;55.43
9969;BME280;5025;48.890;9.278;2023-03-15T12:18:23;98960.06;;;5.27;56.46
9969;BME280;5025;48.890;9.278;2023-03-15T12:20:55;98970.63;;;5.35;57.22
9969;BME280;5025;48.890;9.278;2023-03-15T12:23:32;98969.59;;;5.57;56.31
9969;BME280;5025;48.890;9.278;2023-03-15T12:28:38;98979.16;;;5.67;59.38
9969;BME280;5025;48.890;9.278;2023-03-15T12:31:07;98971.66;;;5.77;58.78
9969;BME280;5025;48.890;9.278;2023-03-15T12:33:50;98969.84;;;5.84;58.77
9969;BME280;5025;48.890;9.278;2023-03-15T12:36:34;98974.63;;;5.89;58.77
9969;BME280;5025;48.890;9.278;2023-03-15T12:39:02;98982.28;;;5.92;58.65
9969;BME280;5025;48.890;9.278;2023-03-15T12:41:49;98985.38;;;5.67;62.44
9969;BME280;5025;48.890;9.278;2023-03-15T12:47:00;98975.25;;;5.63;62.87
9969;BME280;5025;48.890;9.278;2023-03-15T12:52:13;98979.56;;;5.42;65.05
9969;BME280;5025;48.890;9.278;2023-03-15T12:55:14;98984.63;;;5.52;64.82
9969;BME280;5025;48.890;9.278;2023-03-15T12:57:51;98986.00;;;5.48;65.62
9969;BME280;5025;48.890;9.278;2023-03-15T13:00:20;98992.28;;;5.18;67.77
9969;BME280;5025;48.890;9.278;2023-03-15T13:07:53;99010.44;;;4.87;70.59
9969;BME280;5025;48.890;9.278;2023-03-15T13:16:10;99000.97;;;4.01;74.44
9969;BME280;5025;48.890;9.278;2023-03-15T13:19:19;99001.25;;;3.68;76.93
9969;BME280;5025;48.890;9.278;2023-03-15T13:22:10;98990.88;;;3.73;78.17
9969;BME280;5025;48.890;9.278;2023-03-15T13:27:49;98990.59;;;4.06;78.34
9969;BME280;5025;48.890;9.278;2023-03-15T13:33:10;98984.63;;;4.34;76.16
9969;BME280;5025;48.890;9.278;2023-03-15T13:35:44;98979.38;;;4.56;75.86
9969;BME280;5025;48.890;9.278;2023-03-15T13:38:31;98975.56;;;4.95;74.37
9969;BME280;5025;48.890;9.278;2023-03-15T13:41:03;98974.69;;;5.09;71.54
9969;BME280;5025;48.890;9.278;2023-03-15T13:46:51;98976.81;;;5.35;67.88
9969;BME280;5025;48.890;9.278;2023-03-15T13:49:18;98981.72;;;5.32;68.53
9969;BME280;5025;48.890;9.278;2023-03-15T13:51:45;98969.78;;;5.34;68.64
9969;BME280;5025;48.890;9.278;2023-03-15T13:54:15;98979.56;;;5.42;68.46
9969;BME280;5025;48.890;9.278;2023-03-15T13:59:45;98979.22;;;4.94;67.43
9969;BME280;5025;48.890;9.278;2023-03-15T14:02:34;98986.38;;;4.87;68.78
9969;BME280;5025;48.890;9.278;2023-03-15T14:05:04;98992.09;;;4.83;68.50
9969;BME280;5025;48.890;9.278;2023-03-15T14:07:42;98992.72;;;4.85;68.98
9969;BME280;5025;48.890;9.278;2023-03-15T14:12:40;98995.84;;;5.04;67.95
9969;BME280;5025;48.890;9.278;2023-03-15T14:15:17;98986.56;;;5.21;66.56
9969;BME280;5025;48.890;9.278;2023-03-15T14:17:58;98993.47;;;5.52;67.63
9969;BME280;5025;48.890;9.278;2023-03-15T14:20:26;98988.44;;;5.86;65.35
9969;BME280;5025;48.890;9.278;2023-03-15T14:22:57;98986.56;;;6.08;66.89
9969;BME280;5025;48.890;9.278;2023-03-15T14:25:24;98980.63;;;6.13;66.96
9969;BME280;5025;48.890;9.278;2023-03-15T14:27:49;98988.06;;;6.17;66.66
9969;BME280;5025;48.890;9.278;2023-03-15T14:30:23;98985.34;;;6.10;66.65
9969;BME280;5025;48.890;9.278;2023-03-15T14:32:54;98999.97;;;5.86;68.45
9969;BME280;5025;48.890;9.278;2023-03-15T14:35:28;99002.84;;;5.42;68.85
9969;BME280;5025;48.890;9.278;2023-03-15T14:40:36;98990.16;;;4.77;73.71
9969;BME280;5025;48.890;9.278;2023-03-15T14:43:04;98996.06;;;4.58;74.99
9969;BME280;5025;48.890;9.278;2023-03-15T14:45:31;99003.91;;;4.29;77.32